createdAt,value
2019-04-25T00:02:27.572Z,96579.59
2019-04-25T00:04:57.279Z,96597.94
2019-04-25T00:07:27.051Z,96586.44
2019-04-25T00:09:56.849Z,96578.24
2019-04-25T00:12:27.252Z,96582.30
2019-04-25T00:14:56.924Z,96564.28
2019-04-25T00:17:27.508Z,96578.67
2019-04-25T00:19:57.544Z,96575.67
2019-04-25T00:22:28.813Z,96586.00
2019-04-25T00:25:15.257Z,96580.56
2019-04-25T00:27:35.548Z,96570.09
2019-04-25T00:30:07.629Z,96543.14
2019-04-25T00:32:37.347Z,96526.53
2019-04-25T00:35:07.285Z,96519.80
2019-04-25T00:37:36.921Z,96539.41
2019-04-25T00:40:08.428Z,96507.12
2019-04-25T00:42:38.064Z,96519.66
2019-04-25T00:45:08.697Z,96518.02
2019-04-25T00:47:38.331Z,96520.46
2019-04-25T00:50:08.163Z,96533.60
2019-04-25T00:52:37.803Z,96504.59
2019-04-25T00:55:07.800Z,96511.46
2019-04-25T00:57:39.106Z,96502.67
2019-04-25T01:00:32.584Z,96514.19
2019-04-25T01:03:04.025Z,96510.53
2019-04-25T01:05:33.659Z,96522.97
2019-04-25T01:08:03.628Z,96530.55
2019-04-25T01:10:33.327Z,96527.05
2019-04-25T01:13:03.127Z,96534.34
2019-04-25T01:15:33.041Z,96532.08
2019-04-25T01:18:02.904Z,96538.05
2019-04-25T01:20:32.506Z,96523.20
2019-04-25T01:23:03.711Z,96529.83
2019-04-25T01:25:41.032Z,96535.61
2019-04-25T01:28:05.048Z,96539.33
2019-04-25T01:30:34.720Z,96544.44
2019-04-25T01:33:05.124Z,96554.84
2019-04-25T01:35:39.261Z,96537.12
2019-04-25T01:38:13.865Z,96541.88
2019-04-25T01:41:03.202Z,96556.73
2019-04-25T01:43:52.762Z,96551.49
2019-04-25T01:46:20.987Z,96549.71
2019-04-25T01:48:50.690Z,96548.60
2019-04-25T01:51:20.527Z,96547.59
2019-04-25T01:53:50.539Z,96560.45
2019-04-25T01:56:20.224Z,96557.88
2019-04-25T01:58:49.860Z,96554.08
2019-04-25T02:01:19.809Z,96551.59
2019-04-25T02:03:49.500Z,96540.89
2019-04-25T02:06:19.102Z,96550.77
2019-04-25T02:08:48.720Z,96557.47
2019-04-25T02:11:24.016Z,96550.47
2019-04-25T02:13:54.927Z,96553.03
2019-04-25T02:16:25.301Z,96549.82
2019-04-25T02:18:55.523Z,96552.33
2019-04-25T02:21:26.085Z,96545.09
2019-04-25T02:23:56.615Z,96551.59
2019-04-25T02:26:26.338Z,96552.89
2019-04-25T02:28:56.488Z,96558.00
2019-04-25T02:31:26.862Z,96548.61
2019-04-25T02:33:57.843Z,96546.55
2019-04-25T02:36:27.969Z,96548.70
2019-04-25T02:39:01.216Z,96544.16
2019-04-25T02:41:28.952Z,96539.06
2019-04-25T02:44:03.754Z,96533.60
2019-04-25T02:46:49.456Z,96520.56
2019-04-25T02:49:39.460Z,96510.93
2019-04-25T02:52:15.238Z,96535.63
2019-04-25T02:54:44.912Z,96537.88
2019-04-25T02:57:14.819Z,96525.42
2019-04-25T02:59:45.112Z,96526.83
2019-04-25T03:02:15.655Z,96525.95
2019-04-25T03:04:45.356Z,96527.45
2019-04-25T03:07:17.479Z,96533.60
2019-04-25T03:09:46.570Z,96533.06
2019-04-25T03:12:29.789Z,96536.27
2019-04-25T03:14:47.765Z,96543.64
2019-04-25T03:17:17.499Z,96540.53
2019-04-25T03:19:54.320Z,96541.31
2019-04-25T03:22:28.402Z,96533.19
2019-04-25T03:24:58.711Z,96551.89
2019-04-25T03:27:29.496Z,96533.59
2019-04-25T03:29:59.743Z,96541.77
2019-04-25T03:32:29.394Z,96537.23
2019-04-25T03:34:59.145Z,96550.78
2019-04-25T03:37:28.748Z,96550.19
2019-04-25T03:39:58.372Z,96578.54
2019-04-25T03:42:28.111Z,96566.34
2019-04-25T03:44:57.743Z,96571.87
2019-04-25T03:47:27.418Z,96582.37
2019-04-25T03:49:57.054Z,96597.38
2019-04-25T03:52:26.725Z,96597.95
2019-04-25T03:54:56.820Z,96595.02
2019-04-25T03:57:26.537Z,96596.59
2019-04-25T03:59:56.221Z,96605.83
2019-04-25T04:02:25.841Z,96589.97
2019-04-25T04:04:55.591Z,96587.84
2019-04-25T04:07:25.248Z,96580.54
2019-04-25T04:09:55.255Z,96592.08
2019-04-25T04:12:25.004Z,96586.49
2019-04-25T04:14:54.597Z,96584.56
2019-04-25T04:17:34.820Z,96589.66
2019-04-25T04:20:07.029Z,96596.41
2019-04-25T04:22:43.865Z,96605.14
2019-04-25T04:25:15.973Z,96606.29
2019-04-25T04:27:45.641Z,96603.92
2019-04-25T04:30:16.395Z,96618.47
2019-04-25T04:32:46.121Z,96607.71
2019-04-25T04:35:16.174Z,96622.59
2019-04-25T04:37:46.962Z,96613.48
2019-04-25T04:40:17.651Z,96616.70
2019-04-25T04:42:47.943Z,96622.34
2019-04-25T04:45:18.265Z,96627.07
2019-04-25T04:47:47.851Z,96619.61
2019-04-25T04:50:17.551Z,96621.19
2019-04-25T04:52:47.153Z,96616.19
2019-04-25T04:55:17.607Z,96622.88
2019-04-25T04:57:48.222Z,96622.97
2019-04-25T05:00:18.665Z,96626.95
2019-04-25T05:02:49.922Z,96634.45
2019-04-25T05:05:24.799Z,96631.97
2019-04-25T05:07:58.868Z,96625.63
2019-04-25T05:10:28.571Z,96632.17
2019-04-25T05:12:59.724Z,96642.81
2019-04-25T05:15:29.325Z,96648.77
2019-04-25T05:17:58.948Z,96640.77
2019-04-25T05:20:28.566Z,96641.88
2019-04-25T05:22:58.195Z,96645.28
2019-04-25T05:25:27.805Z,96640.64
2019-04-25T05:28:02.776Z,96641.66
2019-04-25T05:30:30.475Z,96643.34
2019-04-25T05:33:00.078Z,96649.13
2019-04-25T05:35:29.742Z,96642.01
2019-04-25T05:37:59.443Z,96645.23
2019-04-25T05:40:29.074Z,96655.27
2019-04-25T05:43:00.336Z,96657.39
2019-04-25T05:45:31.407Z,96651.14
2019-04-25T05:48:01.044Z,96650.61
2019-04-25T05:50:30.708Z,96657.63
2019-04-25T05:53:00.374Z,96650.02
2019-04-25T05:55:29.972Z,96650.59
2019-04-25T05:57:59.663Z,96656.64
2019-04-25T06:00:29.427Z,96651.12
2019-04-25T06:02:59.049Z,96650.36
2019-04-25T06:05:28.711Z,96651.97
2019-04-25T06:07:58.338Z,96651.02
2019-04-25T06:10:36.576Z,96648.75
2019-04-25T06:13:26.429Z,96651.39
2019-04-25T06:15:57.114Z,96657.09
2019-04-25T06:18:32.062Z,96654.42
2019-04-25T06:21:03.101Z,96647.41
2019-04-25T06:23:34.544Z,96639.64
2019-04-25T06:26:19.195Z,96646.38
2019-04-25T06:28:35.493Z,96643.62
2019-04-25T06:31:10.067Z,96644.45
2019-04-25T06:33:36.750Z,96640.39
2019-04-25T06:36:06.384Z,96636.00
2019-04-25T06:38:36.016Z,96642.23
2019-04-25T06:41:05.825Z,96638.89
2019-04-25T06:43:37.100Z,96635.23
2019-04-25T06:46:21.081Z,96634.98
2019-04-25T06:49:00.823Z,96624.83
2019-04-25T06:51:44.009Z,96629.55
2019-04-25T06:54:15.280Z,96624.19
2019-04-25T06:56:44.988Z,96630.47
2019-04-25T06:59:14.844Z,96629.17
2019-04-25T07:01:44.655Z,96625.52
2019-04-25T07:04:14.495Z,96622.03
2019-04-25T07:06:45.582Z,96618.73
2019-04-25T07:09:15.315Z,96620.89
2019-04-25T07:11:45.033Z,96618.38
2019-04-25T07:14:14.669Z,96618.09
2019-04-25T07:16:44.276Z,96624.30
2019-04-25T07:19:15.266Z,96616.73
2019-04-25T07:21:45.462Z,96621.52
2019-04-25T07:24:17.419Z,96619.52
2019-04-25T07:26:54.066Z,96616.23
2019-04-25T07:29:43.209Z,96611.98
2019-04-25T07:32:20.409Z,96604.99
2019-04-25T07:34:50.295Z,96604.88
2019-04-25T07:37:19.895Z,96601.72
2019-04-25T07:39:49.534Z,96602.05
2019-04-25T07:42:19.128Z,96611.70
2019-04-25T07:44:52.692Z,96603.44
2019-04-25T07:47:20.147Z,96604.66
2019-04-25T07:49:49.728Z,96614.12
2019-04-25T07:52:19.356Z,96601.89
2019-04-25T07:54:48.948Z,96609.73
2019-04-25T07:57:18.581Z,96607.10
2019-04-25T07:59:51.605Z,96623.16
2019-04-25T08:02:20.545Z,96616.45
2019-04-25T08:04:50.192Z,96618.15
2019-04-25T08:07:19.852Z,96604.95
2019-04-25T08:09:49.551Z,96603.92
2019-04-25T08:12:19.232Z,96602.73
2019-04-25T08:14:54.226Z,96591.86
2019-04-25T08:17:41.402Z,96610.70
2019-04-25T08:20:13.552Z,96614.88
2019-04-25T08:22:55.713Z,96601.56
2019-04-25T08:25:17.428Z,96613.00
2019-04-25T08:27:47.199Z,96621.48
2019-04-25T08:30:31.424Z,96624.97
2019-04-25T08:33:01.177Z,96621.41
2019-04-25T08:35:31.678Z,96621.44
2019-04-25T08:38:01.331Z,96620.80
2019-04-25T08:40:32.597Z,96626.34
2019-04-25T08:43:03.567Z,96633.64
2019-04-25T08:45:35.675Z,96626.66
2019-04-25T08:48:06.562Z,96627.52
2019-04-25T08:50:53.696Z,96633.22
2019-04-25T08:53:25.044Z,96623.45
2019-04-25T08:56:05.037Z,96632.45
2019-04-25T08:59:01.453Z,96621.81
2019-04-25T09:01:23.618Z,96631.86
2019-04-25T09:03:55.043Z,96622.64
2019-04-25T09:06:24.711Z,96628.36
2019-04-25T09:08:54.308Z,96618.80
2019-04-25T09:11:24.465Z,96624.78
2019-04-25T09:13:54.103Z,96631.61
2019-04-25T09:16:24.032Z,96618.56
2019-04-25T09:18:54.056Z,96619.92
2019-04-25T09:21:23.930Z,96619.09
2019-04-25T09:23:53.655Z,96620.17
2019-04-25T09:26:24.120Z,96619.92
2019-04-25T09:28:53.871Z,96618.53
2019-04-25T09:31:23.745Z,96610.88
2019-04-25T09:33:55.113Z,96627.00
2019-04-25T09:36:24.818Z,96622.92
2019-04-25T09:38:56.244Z,96625.13
2019-04-25T09:41:26.108Z,96621.53
2019-04-25T09:43:57.519Z,96623.16
2019-04-25T09:46:31.594Z,96624.83
2019-04-25T09:49:06.060Z,96624.83
2019-04-25T09:51:37.598Z,96618.28
2019-04-25T09:54:25.290Z,96617.19
2019-04-25T09:56:56.725Z,96615.58
2019-04-25T09:59:29.376Z,96623.44
2019-04-25T10:01:58.139Z,96624.54
2019-04-25T10:04:28.099Z,96621.81
2019-04-25T10:06:57.989Z,96623.45
2019-04-25T10:09:28.186Z,96612.55
2019-04-25T10:11:57.819Z,96619.63
2019-04-25T10:14:40.891Z,96623.18
2019-04-25T10:17:10.657Z,96619.38
2019-04-25T10:19:41.141Z,96615.02
2019-04-25T10:22:10.909Z,96618.00
2019-04-25T10:24:40.607Z,96608.47
2019-04-25T10:27:10.412Z,96602.15
2019-04-25T10:29:47.318Z,96602.45
2019-04-25T10:32:13.024Z,96612.55
2019-04-25T10:34:45.154Z,96606.24
2019-04-25T10:37:16.757Z,96603.39
2019-04-25T10:39:46.547Z,96611.86
2019-04-25T10:42:16.523Z,96611.30
2019-04-25T10:44:47.093Z,96607.53
2019-04-25T10:47:17.197Z,96604.55
2019-04-25T10:49:47.330Z,96606.16
2019-04-25T10:52:17.229Z,96608.64
2019-04-25T10:54:47.891Z,96602.31
2019-04-25T10:57:17.897Z,96602.48
2019-04-25T11:00:00.707Z,96602.89
2019-04-25T11:02:19.142Z,96607.63
2019-04-25T11:04:54.520Z,96614.04
2019-04-25T11:07:24.222Z,96602.11
2019-04-25T11:09:55.126Z,96608.72
2019-04-25T11:12:25.106Z,96604.88
2019-04-25T11:14:56.113Z,96609.80
2019-04-25T11:17:25.930Z,96607.06
2019-04-25T11:19:55.658Z,96606.03
2019-04-25T11:22:25.266Z,96603.28
2019-04-25T11:24:54.860Z,96608.34
2019-04-25T11:27:25.114Z,96597.55
2019-04-25T11:30:08.208Z,96588.52
2019-04-25T11:32:28.685Z,96599.77
2019-04-25T11:34:58.278Z,96597.16
2019-04-25T11:37:31.030Z,96594.28
2019-04-25T11:40:04.135Z,96591.94
2019-04-25T11:42:33.982Z,96592.23
2019-04-25T11:45:06.022Z,96588.59
2019-04-25T11:47:36.279Z,96577.91
2019-04-25T11:50:08.958Z,96577.58
2019-04-25T11:52:38.841Z,96579.98
2019-04-25T11:55:09.447Z,96584.08
2019-04-25T11:57:39.451Z,96583.91
2019-04-25T12:00:21.619Z,96587.22
2019-04-25T12:02:43.947Z,96577.84
2019-04-25T12:05:15.102Z,96570.28
2019-04-25T12:07:45.438Z,96577.38
2019-04-25T12:10:17.420Z,96569.13
2019-04-25T12:12:47.363Z,96566.52
2019-04-25T12:15:17.264Z,96566.45
2019-04-25T12:17:47.439Z,96567.76
2019-04-25T12:20:17.379Z,96555.03
2019-04-25T12:22:46.974Z,96556.55
2019-04-25T12:25:16.753Z,96552.16
2019-04-25T12:27:48.601Z,96532.44
2019-04-25T12:30:18.721Z,96538.42
2019-04-25T12:32:48.454Z,96539.93
2019-04-25T12:35:18.159Z,96543.35
2019-04-25T12:37:48.144Z,96544.25
2019-04-25T12:40:18.074Z,96539.98
2019-04-25T12:42:47.940Z,96538.42
2019-04-25T12:45:19.328Z,96535.08
2019-04-25T12:47:50.786Z,96527.65
2019-04-25T12:50:20.683Z,96523.03
2019-04-25T12:52:50.589Z,96527.83
2019-04-25T12:55:20.614Z,96520.84
2019-04-25T12:57:51.361Z,96510.67
2019-04-25T13:00:26.057Z,96501.66
2019-04-25T13:02:56.568Z,96513.75
2019-04-25T13:05:26.345Z,96512.50
2019-04-25T13:07:58.593Z,96507.52
2019-04-25T13:10:27.382Z,96508.01
2019-04-25T13:12:57.064Z,96503.66
2019-04-25T13:15:27.049Z,96507.07
2019-04-25T13:17:57.143Z,96501.91
2019-04-25T13:20:26.770Z,96494.48
2019-04-25T13:22:56.413Z,96501.03
2019-04-25T13:25:26.079Z,96503.84
2019-04-25T13:28:14.422Z,96498.48
2019-04-25T13:31:10.011Z,96493.37
2019-04-25T13:33:37.583Z,96488.05
2019-04-25T13:36:08.827Z,96480.19
2019-04-25T13:38:38.527Z,96484.77
2019-04-25T13:41:08.134Z,96475.66
2019-04-25T13:43:37.753Z,96466.30
2019-04-25T13:46:07.424Z,96471.27
2019-04-25T13:48:37.134Z,96464.87
2019-04-25T13:51:06.839Z,96475.69
2019-04-25T13:53:36.439Z,96464.89
2019-04-25T13:56:06.346Z,96466.94
2019-04-25T13:58:36.028Z,96457.84
2019-04-25T14:01:12.831Z,96467.16
2019-04-25T14:03:38.094Z,96459.50
2019-04-25T14:06:08.233Z,96453.11
2019-04-25T14:08:37.831Z,96463.13
2019-04-25T14:11:07.835Z,96453.85
2019-04-25T14:13:37.434Z,96455.55
2019-04-25T14:16:19.523Z,96441.83
2019-04-25T14:18:53.723Z,96447.01
2019-04-25T14:21:24.637Z,96443.09
2019-04-25T14:23:54.736Z,96442.77
2019-04-25T14:26:25.098Z,96439.05
2019-04-25T14:28:54.719Z,96444.02
2019-04-25T14:31:38.902Z,96444.61
2019-04-25T14:33:56.611Z,96461.34
2019-04-25T14:36:27.709Z,96450.63
2019-04-25T14:38:57.574Z,96443.42
2019-04-25T14:41:28.114Z,96448.75
2019-04-25T14:43:57.813Z,96448.97
2019-04-25T14:46:27.826Z,96441.81
2019-04-25T14:48:57.409Z,96448.62
2019-04-25T14:51:28.116Z,96445.81
2019-04-25T14:53:59.399Z,96441.48
2019-04-25T14:56:39.765Z,96444.23
2019-04-25T14:59:09.372Z,96447.07
2019-04-25T15:01:44.968Z,96448.77
2019-04-25T15:04:10.595Z,96439.45
2019-04-25T15:06:40.236Z,96441.90
2019-04-25T15:09:10.011Z,96438.70
2019-04-25T15:11:39.642Z,96442.77
2019-04-25T15:14:09.325Z,96439.22
2019-04-25T15:16:38.959Z,96447.07
2019-04-25T15:19:08.554Z,96447.63
2019-04-25T15:21:38.259Z,96452.27
2019-04-25T15:24:07.894Z,96425.78
2019-04-25T15:26:40.181Z,96438.45
2019-04-25T15:29:08.891Z,96424.27
2019-04-25T15:31:38.488Z,96424.16
2019-04-25T15:34:08.124Z,96430.11
2019-04-25T15:36:41.955Z,96421.66
2019-04-25T15:39:29.675Z,96428.77
2019-04-25T15:41:59.040Z,96446.66
2019-04-25T15:44:33.234Z,96445.47
2019-04-25T15:47:04.410Z,96457.97
2019-04-25T15:49:34.568Z,96458.49
2019-04-25T15:52:05.798Z,96464.45
2019-04-25T15:54:35.430Z,96474.50
2019-04-25T15:57:05.699Z,96463.27
2019-04-25T15:59:37.417Z,96458.26
2019-04-25T16:02:08.755Z,96466.33
2019-04-25T16:04:38.510Z,96493.88
2019-04-25T16:07:08.175Z,96489.97
2019-04-25T16:09:37.862Z,96493.70
2019-04-25T16:12:08.227Z,96478.50
2019-04-25T16:14:38.956Z,96492.20
2019-04-25T16:17:08.719Z,96483.47
2019-04-25T16:19:38.479Z,96476.12
2019-04-25T16:22:08.112Z,96482.09
2019-04-25T16:24:37.784Z,96487.81
2019-04-25T16:27:09.069Z,96502.00
2019-04-25T16:29:38.719Z,96493.84
2019-04-25T16:32:19.997Z,96492.15
2019-04-25T16:34:42.063Z,96494.63
2019-04-25T16:37:11.656Z,96485.67
2019-04-25T16:39:42.963Z,96492.98
2019-04-25T16:42:12.774Z,96493.23
2019-04-25T16:44:42.370Z,96485.34
2019-04-25T16:47:13.442Z,96490.77
2019-04-25T16:49:43.079Z,96493.23
2019-04-25T16:52:13.712Z,96489.97
2019-04-25T16:54:43.393Z,96495.69
2019-04-25T16:57:13.058Z,96487.52
2019-04-25T16:59:42.763Z,96494.33
2019-04-25T17:02:12.704Z,96496.23
2019-04-25T17:04:42.439Z,96502.23
2019-04-25T17:07:12.247Z,96508.48
2019-04-25T17:09:42.822Z,96512.06
2019-04-25T17:12:12.911Z,96516.14
2019-04-25T17:14:44.246Z,96512.06
2019-04-25T17:17:18.265Z,96510.97
2019-04-25T17:19:52.340Z,96519.66
2019-04-25T17:22:22.342Z,96515.22
2019-04-25T17:24:51.981Z,96520.95
2019-04-25T17:27:22.265Z,96516.59
2019-04-25T17:29:51.974Z,96511.16
2019-04-25T17:32:51.177Z,96518.97
2019-04-25T17:35:10.935Z,96510.53
2019-04-25T17:37:58.310Z,96519.71
2019-04-25T17:40:29.623Z,96510.73
2019-04-25T17:43:10.432Z,96519.69
2019-04-25T17:45:33.353Z,96521.04
2019-04-25T17:48:03.192Z,96516.06
2019-04-25T17:50:32.985Z,96510.55
2019-04-25T17:53:03.066Z,96506.13
2019-04-25T17:55:33.347Z,96515.05
2019-04-25T17:58:03.280Z,96512.19
2019-04-25T18:00:35.307Z,96512.83
2019-04-25T18:03:07.202Z,96518.27
2019-04-25T18:05:36.870Z,96522.64
2019-04-25T18:08:06.716Z,96523.38
2019-04-25T18:10:37.637Z,96524.08
2019-04-25T18:13:09.439Z,96526.20
2019-04-25T18:15:56.777Z,96532.89
2019-04-25T18:18:30.772Z,96541.73
2019-04-25T18:21:00.389Z,96534.55
2019-04-25T18:23:43.948Z,96530.92
2019-04-25T18:26:25.094Z,96528.73
2019-04-25T18:28:56.397Z,96539.03
2019-04-25T18:31:26.075Z,96545.27
2019-04-25T18:33:57.376Z,96554.49
2019-04-25T18:36:31.558Z,96562.63
2019-04-25T18:39:18.809Z,96561.09
2019-04-25T18:41:55.545Z,96558.52
2019-04-25T18:44:25.161Z,96558.69
2019-04-25T18:46:54.830Z,96566.55
2019-04-25T18:49:24.462Z,96569.49
2019-04-25T18:51:58.094Z,96573.08
2019-04-25T18:54:34.582Z,96570.75
2019-04-25T18:57:06.027Z,96572.11
2019-04-25T18:59:52.965Z,96573.45
2019-04-25T19:02:36.140Z,96588.38
2019-04-25T19:05:08.514Z,96579.66
2019-04-25T19:07:38.606Z,96573.39
2019-04-25T19:10:09.401Z,96578.41
2019-04-25T19:12:40.198Z,96576.80
2019-04-25T19:15:10.626Z,96582.58
2019-04-25T19:17:41.282Z,96572.45
2019-04-25T19:20:11.275Z,96575.17
2019-04-25T19:22:41.521Z,96581.03
2019-04-25T19:25:11.348Z,96579.52
2019-04-25T19:27:42.033Z,96587.45
2019-04-25T19:30:13.641Z,96591.91
2019-04-25T19:32:43.346Z,96574.06
2019-04-25T19:35:13.160Z,96585.98
2019-04-25T19:37:43.798Z,96599.52
2019-04-25T19:40:30.287Z,96593.38
2019-04-25T19:43:06.300Z,96599.20
2019-04-25T19:45:35.964Z,96601.82
2019-04-25T19:48:05.623Z,96596.30
2019-04-25T19:50:35.259Z,96591.20
2019-04-25T19:53:04.924Z,96593.01
2019-04-25T19:55:34.643Z,96579.77
2019-04-25T19:58:04.410Z,96584.88
2019-04-25T20:00:36.862Z,96591.28
2019-04-25T20:03:19.163Z,96594.97
2019-04-25T20:05:50.508Z,96595.45
2019-04-25T20:08:27.329Z,96594.17
2019-04-25T20:11:04.243Z,96583.65
2019-04-25T20:13:33.894Z,96597.75
2019-04-25T20:16:03.564Z,96594.45
2019-04-25T20:18:33.196Z,96602.91
2019-04-25T20:21:02.838Z,96599.67
2019-04-25T20:23:32.446Z,96615.22
2019-04-25T20:26:02.078Z,96620.67
2019-04-25T20:28:31.680Z,96620.36
2019-04-25T20:31:01.309Z,96614.63
2019-04-25T20:33:30.906Z,96613.61
2019-04-25T20:36:00.535Z,96616.42
2019-04-25T20:38:30.143Z,96618.61
2019-04-25T20:40:59.787Z,96633.61
2019-04-25T20:43:29.415Z,96635.62
2019-04-25T20:45:59.078Z,96633.10
2019-04-25T20:48:28.709Z,96629.23
2019-04-25T20:50:58.350Z,96625.58
2019-04-25T20:53:27.986Z,96630.28
2019-04-25T20:55:57.588Z,96638.05
2019-04-25T20:58:27.232Z,96637.73
2019-04-25T21:00:58.501Z,96630.20
2019-04-25T21:03:28.099Z,96623.16
2019-04-25T21:05:59.380Z,96622.61
2019-04-25T21:08:28.977Z,96621.15
2019-04-25T21:10:58.571Z,96626.33
2019-04-25T21:13:32.521Z,96622.83
2019-04-25T21:16:06.507Z,96620.07
2019-04-25T21:18:37.747Z,96620.72
2019-04-25T21:21:07.386Z,96618.81
2019-04-25T21:23:37.019Z,96622.78
2019-04-25T21:26:06.608Z,96617.62
2019-04-25T21:28:36.246Z,96617.11
2019-04-25T21:31:06.087Z,96616.18
2019-04-25T21:33:35.695Z,96616.30
2019-04-25T21:36:05.659Z,96616.25
2019-04-25T21:38:35.574Z,96616.63
2019-04-25T21:41:09.459Z,96619.89
2019-04-25T21:43:40.912Z,96616.91
2019-04-25T21:46:10.788Z,96613.27
2019-04-25T21:48:40.683Z,96612.20
2019-04-25T21:51:27.784Z,96603.56
2019-04-25T21:53:57.532Z,96611.38
2019-04-25T21:56:27.436Z,96614.03
2019-04-25T21:58:57.762Z,96619.05
2019-04-25T22:01:30.468Z,96618.45
2019-04-25T22:04:00.719Z,96608.19
2019-04-25T22:06:30.739Z,96610.56
2019-04-25T22:09:00.834Z,96616.05
2019-04-25T22:11:30.715Z,96609.36
2019-04-25T22:14:01.372Z,96607.28
2019-04-25T22:16:31.307Z,96616.55
2019-04-25T22:19:02.028Z,96612.91
2019-04-25T22:21:38.098Z,96611.00
2019-04-25T22:24:12.828Z,96616.17
2019-04-25T22:26:35.443Z,96611.32
2019-04-25T22:29:05.757Z,96608.95
2019-04-25T22:31:38.228Z,96602.96
2019-04-25T22:34:09.531Z,96609.13
2019-04-25T22:36:39.409Z,96609.08
2019-04-25T22:39:11.054Z,96605.52
2019-04-25T22:41:46.474Z,96613.73
2019-04-25T22:44:17.646Z,96604.91
2019-04-25T22:46:48.040Z,96607.42
2019-04-25T22:49:17.672Z,96616.98
2019-04-25T22:51:47.268Z,96596.84
2019-04-25T22:54:17.178Z,96591.25
2019-04-25T22:56:46.800Z,96592.42
2019-04-25T22:59:16.709Z,96581.78
2019-04-25T23:01:50.954Z,96574.19
2019-04-25T23:04:38.139Z,96577.17
2019-04-25T23:07:07.971Z,96566.55
2019-04-25T23:09:38.735Z,96583.94
2019-04-25T23:12:08.789Z,96583.84
2019-04-25T23:14:38.738Z,96597.60
2019-04-25T23:17:09.379Z,96602.34
2019-04-25T23:19:39.423Z,96587.89
2019-04-25T23:22:09.491Z,96593.47
2019-04-25T23:24:40.839Z,96574.19
2019-04-25T23:27:15.586Z,96563.93
2019-04-25T23:29:45.179Z,96574.36
2019-04-25T23:32:15.093Z,96570.69
2019-04-25T23:34:44.694Z,96558.79
2019-04-25T23:37:15.202Z,96586.70
2019-04-25T23:39:45.055Z,96567.48
2019-04-25T23:42:15.582Z,96581.02
2019-04-25T23:44:45.615Z,96565.19
2019-04-25T23:47:16.330Z,96569.08
2019-04-25T23:49:46.027Z,96567.79
2019-04-25T23:52:17.167Z,96568.59
2019-04-25T23:54:46.865Z,96572.39
2019-04-25T23:57:17.741Z,96570.50
2019-04-25T23:59:47.471Z,96581.59
